Search for airport 
image banner adimage banner adimage banner ad
image banner ad

PA86 - Krill Personal Use

Located in Frystown, United States

ICAO - PA86, IATA -

Data provided by Airmate  

General information

Coordinates: N40°26'51" W76°20'28"
Elevation is 520 feet MSL.
Magnetic variation is -11° East
View others Airports in Pennsylvania

Operational data

Special qualification required
Current time UTC:
Current local time:
METAR: KMUI 092256Z AUTO 08010G18KT 10SM SCT012 BKN160 08/07 A2984 RMK AO2 SLP110 T00800074
View NOTAMs / SUP AIP / TFR affecting this airport [VIEW]
Communications frequencies: [VIEW]

Runways:

RWY identifierQFULength (ft)Width (ft)SurfaceLDA (ft)
101500100GRASS
281500100GRASS

Airport contact information

Address: Frystown United States

Satellite view of PA86